sensor_id;sensor_type;location;lat;lon;timestamp;P1;durP1;ratioP1;P2;durP2;ratioP2
50683;SDS011;36654;45.042;38.994;2023-08-12T00:00:18;9.73;;;6.45;;
50683;SDS011;36654;45.042;38.994;2023-08-12T00:02:44;6.57;;;5.88;;
50683;SDS011;36654;45.042;38.994;2023-08-12T00:05:11;10.15;;;5.95;;
50683;SDS011;36654;45.042;38.994;2023-08-12T00:07:37;10.75;;;6.10;;
50683;SDS011;36654;45.042;38.994;2023-08-12T00:10:08;9.50;;;6.13;;
50683;SDS011;36654;45.042;38.994;2023-08-12T00:12:34;7.43;;;5.90;;
50683;SDS011;36654;45.042;38.994;2023-08-12T00:15:01;10.23;;;6.72;;
50683;SDS011;36654;45.042;38.994;2023-08-12T00:17:28;9.98;;;6.45;;
50683;SDS011;36654;45.042;38.994;2023-08-12T00:19:53;9.45;;;5.32;;
50683;SDS011;36654;45.042;38.994;2023-08-12T00:22:19;11.95;;;5.43;;
50683;SDS011;36654;45.042;38.994;2023-08-12T00:24:45;8.85;;;5.97;;
50683;SDS011;36654;45.042;38.994;2023-08-12T00:27:10;9.30;;;6.32;;
50683;SDS011;36654;45.042;38.994;2023-08-12T00:29:36;10.55;;;6.25;;
50683;SDS011;36654;45.042;38.994;2023-08-12T00:32:02;7.72;;;5.38;;
50683;SDS011;36654;45.042;38.994;2023-08-12T00:34:28;7.07;;;5.63;;
50683;SDS011;36654;45.042;38.994;2023-08-12T00:36:54;7.15;;;5.82;;
50683;SDS011;36654;45.042;38.994;2023-08-12T00:39:19;9.88;;;5.63;;
50683;SDS011;36654;45.042;38.994;2023-08-12T00:41:45;12.07;;;6.15;;
50683;SDS011;36654;45.042;38.994;2023-08-12T00:44:11;8.05;;;5.78;;
50683;SDS011;36654;45.042;38.994;2023-08-12T00:46:40;12.52;;;5.93;;
50683;SDS011;36654;45.042;38.994;2023-08-12T00:49:07;9.05;;;6.47;;
50683;SDS011;36654;45.042;38.994;2023-08-12T00:51:34;11.75;;;6.57;;
50683;SDS011;36654;45.042;38.994;2023-08-12T00:54:01;10.48;;;5.70;;
50683;SDS011;36654;45.042;38.994;2023-08-12T00:56:29;14.18;;;6.18;;
50683;SDS011;36654;45.042;38.994;2023-08-12T00:58:56;8.20;;;5.88;;
50683;SDS011;36654;45.042;38.994;2023-08-12T01:01:23;7.88;;;5.93;;
50683;SDS011;36654;45.042;38.994;2023-08-12T01:03:49;10.35;;;6.05;;
50683;SDS011;36654;45.042;38.994;2023-08-12T01:06:16;11.70;;;5.85;;
50683;SDS011;36654;45.042;38.994;2023-08-12T01:08:42;8.65;;;5.93;;
50683;SDS011;36654;45.042;38.994;2023-08-12T01:13:37;8.35;;;6.43;;
50683;SDS011;36654;45.042;38.994;2023-08-12T01:16:11;8.95;;;6.03;;
50683;SDS011;36654;45.042;38.994;2023-08-12T01:18:38;9.63;;;6.10;;
50683;SDS011;36654;45.042;38.994;2023-08-12T01:21:05;12.63;;;6.20;;
50683;SDS011;36654;45.042;38.994;2023-08-12T01:23:37;9.52;;;6.10;;
50683;SDS011;36654;45.042;38.994;2023-08-12T01:26:04;9.52;;;5.85;;
50683;SDS011;36654;45.042;38.994;2023-08-12T01:28:30;7.80;;;5.85;;
50683;SDS011;36654;45.042;38.994;2023-08-12T01:30:56;12.23;;;5.63;;
50683;SDS011;36654;45.042;38.994;2023-08-12T01:33:31;12.60;;;6.43;;
50683;SDS011;36654;45.042;38.994;2023-08-12T01:36:09;9.27;;;6.43;;
50683;SDS011;36654;45.042;38.994;2023-08-12T01:38:41;8.93;;;6.22;;
50683;SDS011;36654;45.042;38.994;2023-08-12T01:41:09;12.20;;;6.50;;
50683;SDS011;36654;45.042;38.994;2023-08-12T01:43:37;10.43;;;5.75;;
50683;SDS011;36654;45.042;38.994;2023-08-12T01:46:03;10.27;;;6.60;;
50683;SDS011;36654;45.042;38.994;2023-08-12T01:48:29;12.77;;;7.25;;
50683;SDS011;36654;45.042;38.994;2023-08-12T01:50:54;8.98;;;6.38;;
50683;SDS011;36654;45.042;38.994;2023-08-12T01:53:20;12.00;;;6.70;;
50683;SDS011;36654;45.042;38.994;2023-08-12T01:55:46;11.10;;;6.55;;
50683;SDS011;36654;45.042;38.994;2023-08-12T01:58:13;11.80;;;6.05;;
50683;SDS011;36654;45.042;38.994;2023-08-12T02:00:38;10.52;;;6.72;;
50683;SDS011;36654;45.042;38.994;2023-08-12T02:03:04;10.80;;;6.40;;
50683;SDS011;36654;45.042;38.994;2023-08-12T02:05:29;14.75;;;6.45;;
50683;SDS011;36654;45.042;38.994;2023-08-12T02:07:55;10.32;;;6.05;;
50683;SDS011;36654;45.042;38.994;2023-08-12T02:10:20;10.75;;;7.15;;
50683;SDS011;36654;45.042;38.994;2023-08-12T02:12:46;11.27;;;6.40;;
50683;SDS011;36654;45.042;38.994;2023-08-12T02:15:12;11.63;;;6.53;;
50683;SDS011;36654;45.042;38.994;2023-08-12T02:17:38;10.93;;;6.93;;
50683;SDS011;36654;45.042;38.994;2023-08-12T02:20:03;10.32;;;6.00;;
50683;SDS011;36654;45.042;38.994;2023-08-12T02:22:30;12.73;;;6.05;;
50683;SDS011;36654;45.042;38.994;2023-08-12T02:24:55;11.68;;;6.78;;
50683;SDS011;36654;45.042;38.994;2023-08-12T02:27:21;14.10;;;7.43;;
50683;SDS011;36654;45.042;38.994;2023-08-12T02:29:47;11.50;;;6.97;;
50683;SDS011;36654;45.042;38.994;2023-08-12T02:32:12;11.02;;;6.75;;
50683;SDS011;36654;45.042;38.994;2023-08-12T02:34:38;12.57;;;6.90;;
50683;SDS011;36654;45.042;38.994;2023-08-12T02:37:03;15.45;;;7.50;;
50683;SDS011;36654;45.042;38.994;2023-08-12T02:39:29;9.02;;;6.80;;
50683;SDS011;36654;45.042;38.994;2023-08-12T02:41:55;14.80;;;6.85;;
50683;SDS011;36654;45.042;38.994;2023-08-12T02:44:20;10.27;;;6.72;;
50683;SDS011;36654;45.042;38.994;2023-08-12T02:46:46;12.05;;;7.13;;
50683;SDS011;36654;45.042;38.994;2023-08-12T02:49:12;9.93;;;6.75;;
50683;SDS011;36654;45.042;38.994;2023-08-12T02:51:37;11.07;;;6.85;;
50683;SDS011;36654;45.042;38.994;2023-08-12T02:54:03;13.57;;;6.93;;
50683;SDS011;36654;45.042;38.994;2023-08-12T02:56:28;12.40;;;7.43;;
50683;SDS011;36654;45.042;38.994;2023-08-12T02:58:54;9.10;;;7.13;;
50683;SDS011;36654;45.042;38.994;2023-08-12T03:01:20;10.88;;;7.35;;
50683;SDS011;36654;45.042;38.994;2023-08-12T03:03:46;12.30;;;7.40;;
50683;SDS011;36654;45.042;38.994;2023-08-12T03:06:12;12.57;;;7.03;;
50683;SDS011;36654;45.042;38.994;2023-08-12T03:08:37;12.90;;;7.38;;
50683;SDS011;36654;45.042;38.994;2023-08-12T03:11:03;11.60;;;7.38;;
50683;SDS011;36654;45.042;38.994;2023-08-12T03:13:30;12.27;;;7.55;;
50683;SDS011;36654;45.042;38.994;2023-08-12T03:15:56;13.55;;;7.38;;
50683;SDS011;36654;45.042;38.994;2023-08-12T03:18:21;14.98;;;6.97;;
50683;SDS011;36654;45.042;38.994;2023-08-12T03:20:47;12.63;;;8.02;;
50683;SDS011;36654;45.042;38.994;2023-08-12T03:23:13;11.25;;;6.97;;
50683;SDS011;36654;45.042;38.994;2023-08-12T03:25:39;13.18;;;7.85;;
50683;SDS011;36654;45.042;38.994;2023-08-12T03:28:05;11.07;;;8.38;;
50683;SDS011;36654;45.042;38.994;2023-08-12T03:30:31;10.35;;;7.75;;
50683;SDS011;36654;45.042;38.994;2023-08-12T03:32:56;10.80;;;7.55;;
50683;SDS011;36654;45.042;38.994;2023-08-12T03:35:22;12.65;;;7.28;;
50683;SDS011;36654;45.042;38.994;2023-08-12T03:37:48;12.43;;;8.57;;
50683;SDS011;36654;45.042;38.994;2023-08-12T03:40:13;17.50;;;8.63;;
50683;SDS011;36654;45.042;38.994;2023-08-12T03:42:39;10.93;;;8.73;;
50683;SDS011;36654;45.042;38.994;2023-08-12T03:45:05;11.93;;;8.77;;
50683;SDS011;36654;45.042;38.994;2023-08-12T03:47:31;12.77;;;8.90;;
50683;SDS011;36654;45.042;38.994;2023-08-12T03:49:57;16.75;;;8.90;;
50683;SDS011;36654;45.042;38.994;2023-08-12T03:52:22;12.68;;;8.23;;
50683;SDS011;36654;45.042;38.994;2023-08-12T03:54:48;12.77;;;8.73;;
50683;SDS011;36654;45.042;38.994;2023-08-12T03:57:14;14.18;;;8.65;;
50683;SDS011;36654;45.042;38.994;2023-08-12T03:59:40;12.15;;;8.93;;
50683;SDS011;36654;45.042;38.994;2023-08-12T04:02:06;12.02;;;7.57;;
50683;SDS011;36654;45.042;38.994;2023-08-12T04:04:32;9.27;;;7.70;;
50683;SDS011;36654;45.042;38.994;2023-08-12T04:06:57;11.15;;;8.18;;
50683;SDS011;36654;45.042;38.994;2023-08-12T04:09:23;14.05;;;7.63;;
50683;SDS011;36654;45.042;38.994;2023-08-12T04:11:49;14.63;;;8.57;;
50683;SDS011;36654;45.042;38.994;2023-08-12T04:14:14;11.70;;;8.15;;
50683;SDS011;36654;45.042;38.994;2023-08-12T04:16:40;11.07;;;7.57;;
50683;SDS011;36654;45.042;38.994;2023-08-12T04:19:05;15.50;;;8.05;;
50683;SDS011;36654;45.042;38.994;2023-08-12T04:21:31;11.45;;;7.82;;
50683;SDS011;36654;45.042;38.994;2023-08-12T04:23:57;11.05;;;8.10;;
50683;SDS011;36654;45.042;38.994;2023-08-12T04:26:22;13.55;;;7.80;;
50683;SDS011;36654;45.042;38.994;2023-08-12T04:28:48;14.02;;;8.15;;
50683;SDS011;36654;45.042;38.994;2023-08-12T04:31:13;12.40;;;7.75;;
50683;SDS011;36654;45.042;38.994;2023-08-12T04:33:39;12.32;;;7.70;;
50683;SDS011;36654;45.042;38.994;2023-08-12T04:36:05;12.57;;;7.75;;
50683;SDS011;36654;45.042;38.994;2023-08-12T04:38:30;9.98;;;7.90;;
50683;SDS011;36654;45.042;38.994;2023-08-12T04:40:56;13.40;;;7.82;;
50683;SDS011;36654;45.042;38.994;2023-08-12T04:43:22;12.38;;;7.32;;
50683;SDS011;36654;45.042;38.994;2023-08-12T04:45:48;13.93;;;7.60;;
50683;SDS011;36654;45.042;38.994;2023-08-12T04:48:14;12.70;;;7.30;;
50683;SDS011;36654;45.042;38.994;2023-08-12T04:50:41;14.55;;;7.07;;
50683;SDS011;36654;45.042;38.994;2023-08-12T04:53:07;13.40;;;7.22;;
50683;SDS011;36654;45.042;38.994;2023-08-12T04:55:34;12.23;;;7.28;;
50683;SDS011;36654;45.042;38.994;2023-08-12T04:58:01;9.77;;;7.80;;
50683;SDS011;36654;45.042;38.994;2023-08-12T05:00:27;10.73;;;6.25;;
50683;SDS011;36654;45.042;38.994;2023-08-12T05:02:53;10.52;;;7.25;;
50683;SDS011;36654;45.042;38.994;2023-08-12T05:05:19;8.80;;;6.70;;
50683;SDS011;36654;45.042;38.994;2023-08-12T05:07:45;9.60;;;6.63;;
50683;SDS011;36654;45.042;38.994;2023-08-12T05:10:15;10.68;;;6.45;;
50683;SDS011;36654;45.042;38.994;2023-08-12T05:12:41;11.70;;;6.45;;
50683;SDS011;36654;45.042;38.994;2023-08-12T05:15:11;10.43;;;7.05;;
50683;SDS011;36654;45.042;38.994;2023-08-12T05:17:37;11.00;;;7.32;;
50683;SDS011;36654;45.042;38.994;2023-08-12T05:20:03;8.63;;;6.28;;
50683;SDS011;36654;45.042;38.994;2023-08-12T05:22:32;8.25;;;6.75;;
50683;SDS011;36654;45.042;38.994;2023-08-12T05:24:58;12.02;;;6.43;;
50683;SDS011;36654;45.042;38.994;2023-08-12T05:27:23;9.07;;;6.82;;
50683;SDS011;36654;45.042;38.994;2023-08-12T05:29:51;14.50;;;7.10;;
50683;SDS011;36654;45.042;38.994;2023-08-12T05:32:17;18.67;;;7.60;;
50683;SDS011;36654;45.042;38.994;2023-08-12T05:34:43;12.73;;;7.38;;
50683;SDS011;36654;45.042;38.994;2023-08-12T05:37:08;10.85;;;7.18;;
50683;SDS011;36654;45.042;38.994;2023-08-12T05:39:34;9.50;;;6.88;;
50683;SDS011;36654;45.042;38.994;2023-08-12T05:42:00;10.93;;;7.72;;
50683;SDS011;36654;45.042;38.994;2023-08-12T05:44:25;10.63;;;6.78;;
50683;SDS011;36654;45.042;38.994;2023-08-12T05:46:53;10.38;;;6.45;;
50683;SDS011;36654;45.042;38.994;2023-08-12T05:49:19;10.25;;;7.25;;
50683;SDS011;36654;45.042;38.994;2023-08-12T05:51:45;9.85;;;7.70;;
50683;SDS011;36654;45.042;38.994;2023-08-12T05:54:10;10.88;;;6.82;;
50683;SDS011;36654;45.042;38.994;2023-08-12T05:56:36;8.02;;;6.97;;
50683;SDS011;36654;45.042;38.994;2023-08-12T05:59:04;11.30;;;7.97;;
50683;SDS011;36654;45.042;38.994;2023-08-12T06:01:29;11.23;;;7.00;;
50683;SDS011;36654;45.042;38.994;2023-08-12T06:03:55;12.05;;;9.00;;
50683;SDS011;36654;45.042;38.994;2023-08-12T06:06:20;10.68;;;8.75;;
50683;SDS011;36654;45.042;38.994;2023-08-12T06:08:47;10.02;;;6.82;;
50683;SDS011;36654;45.042;38.994;2023-08-12T06:11:13;12.30;;;8.80;;
50683;SDS011;36654;45.042;38.994;2023-08-12T06:13:39;12.48;;;8.40;;
50683;SDS011;36654;45.042;38.994;2023-08-12T06:16:04;12.73;;;7.85;;
50683;SDS011;36654;45.042;38.994;2023-08-12T06:18:30;11.90;;;8.55;;
50683;SDS011;36654;45.042;38.994;2023-08-12T06:20:55;10.45;;;8.35;;
50683;SDS011;36654;45.042;38.994;2023-08-12T06:23:21;8.88;;;7.97;;
50683;SDS011;36654;45.042;38.994;2023-08-12T06:25:47;12.57;;;9.35;;
50683;SDS011;36654;45.042;38.994;2023-08-12T06:28:12;14.02;;;7.93;;
50683;SDS011;36654;45.042;38.994;2023-08-12T06:30:38;12.27;;;7.28;;
50683;SDS011;36654;45.042;38.994;2023-08-12T06:33:04;15.95;;;9.15;;
50683;SDS011;36654;45.042;38.994;2023-08-12T06:35:29;10.48;;;7.70;;
50683;SDS011;36654;45.042;38.994;2023-08-12T06:37:55;9.95;;;7.93;;
50683;SDS011;36654;45.042;38.994;2023-08-12T06:40:21;17.20;;;7.75;;
50683;SDS011;36654;45.042;38.994;2023-08-12T06:42:46;14.75;;;8.23;;
50683;SDS011;36654;45.042;38.994;2023-08-12T06:45:12;13.23;;;7.63;;
50683;SDS011;36654;45.042;38.994;2023-08-12T06:47:38;10.38;;;7.53;;
50683;SDS011;36654;45.042;38.994;2023-08-12T06:50:03;11.13;;;8.18;;
50683;SDS011;36654;45.042;38.994;2023-08-12T06:52:29;12.88;;;8.55;;
50683;SDS011;36654;45.042;38.994;2023-08-12T06:54:55;11.57;;;7.72;;
50683;SDS011;36654;45.042;38.994;2023-08-12T06:57:20;11.23;;;7.93;;
50683;SDS011;36654;45.042;38.994;2023-08-12T06:59:46;10.48;;;7.30;;
50683;SDS011;36654;45.042;38.994;2023-08-12T07:02:12;8.63;;;7.22;;
50683;SDS011;36654;45.042;38.994;2023-08-12T07:04:37;17.13;;;10.43;;
50683;SDS011;36654;45.042;38.994;2023-08-12T07:07:03;10.68;;;7.20;;
50683;SDS011;36654;45.042;38.994;2023-08-12T07:09:29;11.30;;;7.13;;
50683;SDS011;36654;45.042;38.994;2023-08-12T07:11:54;9.52;;;7.50;;
50683;SDS011;36654;45.042;38.994;2023-08-12T07:14:20;13.48;;;7.90;;
50683;SDS011;36654;45.042;38.994;2023-08-12T07:16:45;10.23;;;7.47;;
50683;SDS011;36654;45.042;38.994;2023-08-12T07:19:18;10.93;;;6.90;;
50683;SDS011;36654;45.042;38.994;2023-08-12T07:21:44;8.68;;;6.80;;
50683;SDS011;36654;45.042;38.994;2023-08-12T07:24:13;10.38;;;7.38;;
50683;SDS011;36654;45.042;38.994;2023-08-12T07:26:38;12.93;;;7.78;;
50683;SDS011;36654;45.042;38.994;2023-08-12T07:29:04;11.20;;;7.68;;
50683;SDS011;36654;45.042;38.994;2023-08-12T07:31:29;9.02;;;6.97;;
50683;SDS011;36654;45.042;38.994;2023-08-12T07:33:55;9.95;;;7.35;;
50683;SDS011;36654;45.042;38.994;2023-08-12T07:36:21;12.75;;;8.70;;
50683;SDS011;36654;45.042;38.994;2023-08-12T07:38:47;15.73;;;9.63;;
50683;SDS011;36654;45.042;38.994;2023-08-12T07:41:13;9.82;;;7.00;;
50683;SDS011;36654;45.042;38.994;2023-08-12T07:43:38;13.60;;;7.63;;
50683;SDS011;36654;45.042;38.994;2023-08-12T07:46:04;9.40;;;7.80;;
50683;SDS011;36654;45.042;38.994;2023-08-12T07:48:29;10.05;;;7.88;;
50683;SDS011;36654;45.042;38.994;2023-08-12T07:50:58;10.93;;;7.40;;
50683;SDS011;36654;45.042;38.994;2023-08-12T07:53:24;11.85;;;7.50;;
50683;SDS011;36654;45.042;38.994;2023-08-12T07:55:50;8.35;;;7.22;;
50683;SDS011;36654;45.042;38.994;2023-08-12T07:58:16;9.90;;;7.38;;
50683;SDS011;36654;45.042;38.994;2023-08-12T08:00:42;12.25;;;7.68;;
50683;SDS011;36654;45.042;38.994;2023-08-12T08:03:07;10.68;;;7.78;;
50683;SDS011;36654;45.042;38.994;2023-08-12T08:05:33;17.75;;;8.23;;
50683;SDS011;36654;45.042;38.994;2023-08-12T08:07:58;13.00;;;7.68;;
50683;SDS011;36654;45.042;38.994;2023-08-12T08:10:24;8.25;;;6.82;;
50683;SDS011;36654;45.042;38.994;2023-08-12T08:12:50;9.73;;;6.95;;
50683;SDS011;36654;45.042;38.994;2023-08-12T08:15:16;9.43;;;6.88;;
50683;SDS011;36654;45.042;38.994;2023-08-12T08:17:41;11.10;;;7.35;;
50683;SDS011;36654;45.042;38.994;2023-08-12T08:20:07;10.65;;;9.32;;
50683;SDS011;36654;45.042;38.994;2023-08-12T08:22:33;9.95;;;7.20;;
50683;SDS011;36654;45.042;38.994;2023-08-12T08:24:59;8.88;;;6.93;;
50683;SDS011;36654;45.042;38.994;2023-08-12T08:27:24;13.77;;;7.47;;
50683;SDS011;36654;45.042;38.994;2023-08-12T08:29:50;9.88;;;7.32;;
50683;SDS011;36654;45.042;38.994;2023-08-12T08:32:16;8.85;;;6.75;;
50683;SDS011;36654;45.042;38.994;2023-08-12T08:34:42;9.82;;;8.05;;
50683;SDS011;36654;45.042;38.994;2023-08-12T08:37:07;11.10;;;7.40;;
50683;SDS011;36654;45.042;38.994;2023-08-12T08:39:33;10.43;;;7.20;;
50683;SDS011;36654;45.042;38.994;2023-08-12T08:41:59;9.65;;;7.28;;
50683;SDS011;36654;45.042;38.994;2023-08-12T08:44:26;10.48;;;7.63;;
50683;SDS011;36654;45.042;38.994;2023-08-12T08:46:55;10.52;;;7.53;;
50683;SDS011;36654;45.042;38.994;2023-08-12T08:49:21;9.85;;;7.25;;
50683;SDS011;36654;45.042;38.994;2023-08-12T08:51:48;12.85;;;6.90;;
50683;SDS011;36654;45.042;38.994;2023-08-12T08:54:15;11.23;;;7.05;;
50683;SDS011;36654;45.042;38.994;2023-08-12T08:56:40;12.00;;;7.20;;
50683;SDS011;36654;45.042;38.994;2023-08-12T08:59:06;10.07;;;6.93;;
50683;SDS011;36654;45.042;38.994;2023-08-12T09:01:32;15.27;;;8.00;;
50683;SDS011;36654;45.042;38.994;2023-08-12T09:04:01;12.10;;;7.53;;
50683;SDS011;36654;45.042;38.994;2023-08-12T09:06:28;8.93;;;7.15;;
50683;SDS011;36654;45.042;38.994;2023-08-12T09:08:55;12.35;;;7.68;;
50683;SDS011;36654;45.042;38.994;2023-08-12T09:11:21;10.60;;;7.63;;
50683;SDS011;36654;45.042;38.994;2023-08-12T09:13:47;9.25;;;7.40;;
50683;SDS011;36654;45.042;38.994;2023-08-12T09:16:14;10.05;;;7.63;;
50683;SDS011;36654;45.042;38.994;2023-08-12T09:18:44;8.55;;;7.43;;
50683;SDS011;36654;45.042;38.994;2023-08-12T09:21:10;10.55;;;7.47;;
50683;SDS011;36654;45.042;38.994;2023-08-12T09:23:39;11.30;;;7.00;;
50683;SDS011;36654;45.042;38.994;2023-08-12T09:26:16;11.05;;;7.25;;
50683;SDS011;36654;45.042;38.994;2023-08-12T09:28:43;12.30;;;7.75;;
50683;SDS011;36654;45.042;38.994;2023-08-12T09:31:30;13.40;;;7.13;;
50683;SDS011;36654;45.042;38.994;2023-08-12T09:33:59;10.25;;;7.35;;
50683;SDS011;36654;45.042;38.994;2023-08-12T09:36:28;11.10;;;6.97;;
50683;SDS011;36654;45.042;38.994;2023-08-12T09:38:55;14.35;;;8.00;;
50683;SDS011;36654;45.042;38.994;2023-08-12T09:41:22;11.70;;;7.50;;
50683;SDS011;36654;45.042;38.994;2023-08-12T09:43:50;10.32;;;8.10;;
50683;SDS011;36654;45.042;38.994;2023-08-12T09:46:18;14.35;;;8.88;;
50683;SDS011;36654;45.042;38.994;2023-08-12T09:48:46;9.93;;;7.82;;
50683;SDS011;36654;45.042;38.994;2023-08-12T09:51:11;9.05;;;7.30;;
50683;SDS011;36654;45.042;38.994;2023-08-12T09:53:38;9.18;;;7.93;;
50683;SDS011;36654;45.042;38.994;2023-08-12T09:56:07;13.30;;;8.23;;
50683;SDS011;36654;45.042;38.994;2023-08-12T09:58:36;8.93;;;6.88;;
50683;SDS011;36654;45.042;38.994;2023-08-12T10:01:02;9.68;;;7.03;;
50683;SDS011;36654;45.042;38.994;2023-08-12T10:03:32;11.90;;;7.35;;
50683;SDS011;36654;45.042;38.994;2023-08-12T10:06:00;12.65;;;8.43;;
50683;SDS011;36654;45.042;38.994;2023-08-12T10:08:28;9.55;;;7.55;;
50683;SDS011;36654;45.042;38.994;2023-08-12T10:10:54;15.18;;;8.00;;
50683;SDS011;36654;45.042;38.994;2023-08-12T10:13:20;10.40;;;8.05;;
50683;SDS011;36654;45.042;38.994;2023-08-12T10:15:46;12.32;;;7.80;;
50683;SDS011;36654;45.042;38.994;2023-08-12T10:18:14;9.85;;;7.82;;
50683;SDS011;36654;45.042;38.994;2023-08-12T10:20:40;12.98;;;7.80;;
50683;SDS011;36654;45.042;38.994;2023-08-12T10:23:09;8.85;;;7.32;;
50683;SDS011;36654;45.042;38.994;2023-08-12T10:25:40;8.32;;;7.53;;
50683;SDS011;36654;45.042;38.994;2023-08-12T10:30:33;8.45;;;7.60;;
50683;SDS011;36654;45.042;38.994;2023-08-12T10:32:59;13.13;;;7.65;;
50683;SDS011;36654;45.042;38.994;2023-08-12T10:35:43;11.13;;;7.72;;
50683;SDS011;36654;45.042;38.994;2023-08-12T10:38:12;10.60;;;6.95;;
50683;SDS011;36654;45.042;38.994;2023-08-12T10:40:39;10.82;;;7.93;;
50683;SDS011;36654;45.042;38.994;2023-08-12T10:43:05;8.68;;;7.22;;
50683;SDS011;36654;45.042;38.994;2023-08-12T10:45:41;13.00;;;7.53;;
50683;SDS011;36654;45.042;38.994;2023-08-12T10:48:16;7.50;;;6.63;;
50683;SDS011;36654;45.042;38.994;2023-08-12T10:50:45;11.55;;;7.43;;
50683;SDS011;36654;45.042;38.994;2023-08-12T10:53:32;11.05;;;7.72;;
50683;SDS011;36654;45.042;38.994;2023-08-12T10:55:59;10.70;;;8.50;;
50683;SDS011;36654;45.042;38.994;2023-08-12T10:58:45;11.52;;;8.20;;
50683;SDS011;36654;45.042;38.994;2023-08-12T11:01:18;10.07;;;8.75;;
50683;SDS011;36654;45.042;38.994;2023-08-12T11:03:45;11.25;;;7.90;;
50683;SDS011;36654;45.042;38.994;2023-08-12T11:06:11;9.70;;;7.30;;
50683;SDS011;36654;45.042;38.994;2023-08-12T11:08:45;10.60;;;7.72;;
50683;SDS011;36654;45.042;38.994;2023-08-12T11:11:23;10.25;;;7.80;;
50683;SDS011;36654;45.042;38.994;2023-08-12T11:13:56;10.13;;;7.55;;
50683;SDS011;36654;45.042;38.994;2023-08-12T11:16:35;10.23;;;7.90;;
50683;SDS011;36654;45.042;38.994;2023-08-12T11:19:02;12.30;;;7.78;;
50683;SDS011;36654;45.042;38.994;2023-08-12T11:21:28;11.45;;;7.70;;
50683;SDS011;36654;45.042;38.994;2023-08-12T11:23:54;9.40;;;8.40;;
50683;SDS011;36654;45.042;38.994;2023-08-12T11:26:22;9.88;;;8.63;;
50683;SDS011;36654;45.042;38.994;2023-08-12T11:28:48;12.13;;;7.63;;
50683;SDS011;36654;45.042;38.994;2023-08-12T11:31:15;10.93;;;7.72;;
50683;SDS011;36654;45.042;38.994;2023-08-12T11:33:41;10.15;;;7.88;;
50683;SDS011;36654;45.042;38.994;2023-08-12T11:36:08;8.75;;;7.53;;
50683;SDS011;36654;45.042;38.994;2023-08-12T11:38:37;10.60;;;8.15;;
50683;SDS011;36654;45.042;38.994;2023-08-12T11:41:05;9.35;;;7.72;;
50683;SDS011;36654;45.042;38.994;2023-08-12T11:43:35;11.60;;;7.38;;
50683;SDS011;36654;45.042;38.994;2023-08-12T11:46:10;10.00;;;7.43;;
50683;SDS011;36654;45.042;38.994;2023-08-12T11:48:35;12.02;;;7.95;;
50683;SDS011;36654;45.042;38.994;2023-08-12T11:51:01;11.27;;;7.95;;
50683;SDS011;36654;45.042;38.994;2023-08-12T11:53:27;9.77;;;8.23;;
50683;SDS011;36654;45.042;38.994;2023-08-12T11:55:54;8.70;;;7.80;;
50683;SDS011;36654;45.042;38.994;2023-08-12T11:58:19;9.00;;;7.97;;
50683;SDS011;36654;45.042;38.994;2023-08-12T12:00:48;9.88;;;7.85;;
50683;SDS011;36654;45.042;38.994;2023-08-12T12:03:16;13.48;;;7.80;;
50683;SDS011;36654;45.042;38.994;2023-08-12T12:08:11;11.15;;;8.48;;
50683;SDS011;36654;45.042;38.994;2023-08-12T12:10:37;10.25;;;7.70;;
50683;SDS011;36654;45.042;38.994;2023-08-12T12:13:03;14.45;;;8.70;;
50683;SDS011;36654;45.042;38.994;2023-08-12T12:15:30;9.77;;;7.65;;
50683;SDS011;36654;45.042;38.994;2023-08-12T12:17:56;14.93;;;8.73;;
50683;SDS011;36654;45.042;38.994;2023-08-12T12:20:22;13.25;;;8.65;;
50683;SDS011;36654;45.042;38.994;2023-08-12T12:22:47;11.73;;;7.88;;
50683;SDS011;36654;45.042;38.994;2023-08-12T12:25:15;12.95;;;8.60;;
50683;SDS011;36654;45.042;38.994;2023-08-12T12:27:45;13.20;;;8.93;;
50683;SDS011;36654;45.042;38.994;2023-08-12T12:30:12;10.25;;;8.90;;
50683;SDS011;36654;45.042;38.994;2023-08-12T12:32:39;11.07;;;7.70;;
50683;SDS011;36654;45.042;38.994;2023-08-12T12:35:05;10.18;;;7.30;;
50683;SDS011;36654;45.042;38.994;2023-08-12T12:37:35;13.07;;;8.70;;
50683;SDS011;36654;45.042;38.994;2023-08-12T12:40:01;13.98;;;8.52;;
50683;SDS011;36654;45.042;38.994;2023-08-12T12:42:28;11.23;;;8.68;;
50683;SDS011;36654;45.042;38.994;2023-08-12T12:44:54;11.35;;;8.05;;
50683;SDS011;36654;45.042;38.994;2023-08-12T12:47:20;11.48;;;7.65;;
50683;SDS011;36654;45.042;38.994;2023-08-12T12:49:46;12.32;;;8.48;;
50683;SDS011;36654;45.042;38.994;2023-08-12T12:52:11;13.77;;;8.27;;
50683;SDS011;36654;45.042;38.994;2023-08-12T12:54:38;11.57;;;8.05;;
50683;SDS011;36654;45.042;38.994;2023-08-12T12:57:04;12.52;;;8.77;;
50683;SDS011;36654;45.042;38.994;2023-08-12T12:59:30;13.88;;;9.82;;
50683;SDS011;36654;45.042;38.994;2023-08-12T13:01:56;11.35;;;8.00;;
50683;SDS011;36654;45.042;38.994;2023-08-12T13:04:22;9.48;;;7.57;;
50683;SDS011;36654;45.042;38.994;2023-08-12T13:06:47;9.50;;;7.82;;
50683;SDS011;36654;45.042;38.994;2023-08-12T13:09:13;9.98;;;8.30;;
50683;SDS011;36654;45.042;38.994;2023-08-12T13:11:39;10.57;;;8.10;;
50683;SDS011;36654;45.042;38.994;2023-08-12T13:14:04;10.15;;;7.65;;
50683;SDS011;36654;45.042;38.994;2023-08-12T13:16:30;16.70;;;8.57;;
50683;SDS011;36654;45.042;38.994;2023-08-12T13:18:56;12.07;;;8.68;;
50683;SDS011;36654;45.042;38.994;2023-08-12T13:21:25;15.25;;;10.48;;
50683;SDS011;36654;45.042;38.994;2023-08-12T13:23:52;14.77;;;9.13;;
50683;SDS011;36654;45.042;38.994;2023-08-12T13:26:19;17.00;;;8.10;;
50683;SDS011;36654;45.042;38.994;2023-08-12T13:28:45;15.77;;;9.77;;
50683;SDS011;36654;45.042;38.994;2023-08-12T13:31:11;13.60;;;8.98;;
50683;SDS011;36654;45.042;38.994;2023-08-12T13:33:37;14.50;;;8.77;;
50683;SDS011;36654;45.042;38.994;2023-08-12T13:36:03;12.02;;;8.73;;
50683;SDS011;36654;45.042;38.994;2023-08-12T13:38:29;14.75;;;8.52;;
50683;SDS011;36654;45.042;38.994;2023-08-12T13:40:55;12.93;;;9.15;;
50683;SDS011;36654;45.042;38.994;2023-08-12T13:43:20;13.40;;;8.38;;
50683;SDS011;36654;45.042;38.994;2023-08-12T13:45:46;14.40;;;8.35;;
50683;SDS011;36654;45.042;38.994;2023-08-12T13:48:11;14.75;;;9.95;;
50683;SDS011;36654;45.042;38.994;2023-08-12T13:50:37;9.80;;;8.32;;
50683;SDS011;36654;45.042;38.994;2023-08-12T13:53:02;11.40;;;8.30;;
50683;SDS011;36654;45.042;38.994;2023-08-12T13:55:28;12.82;;;8.27;;
50683;SDS011;36654;45.042;38.994;2023-08-12T13:57:54;11.02;;;8.07;;
50683;SDS011;36654;45.042;38.994;2023-08-12T14:00:20;12.98;;;8.05;;
50683;SDS011;36654;45.042;38.994;2023-08-12T14:02:46;12.05;;;9.52;;
50683;SDS011;36654;45.042;38.994;2023-08-12T14:05:13;11.95;;;9.25;;
50683;SDS011;36654;45.042;38.994;2023-08-12T14:07:39;10.40;;;8.55;;
50683;SDS011;36654;45.042;38.994;2023-08-12T14:10:06;15.25;;;7.90;;
50683;SDS011;36654;45.042;38.994;2023-08-12T14:12:32;12.05;;;7.78;;
50683;SDS011;36654;45.042;38.994;2023-08-12T14:14:57;13.45;;;8.23;;
50683;SDS011;36654;45.042;38.994;2023-08-12T14:17:23;14.32;;;8.05;;
50683;SDS011;36654;45.042;38.994;2023-08-12T14:19:50;17.15;;;12.10;;
50683;SDS011;36654;45.042;38.994;2023-08-12T14:22:17;16.20;;;10.52;;
50683;SDS011;36654;45.042;38.994;2023-08-12T14:24:43;11.50;;;9.15;;
50683;SDS011;36654;45.042;38.994;2023-08-12T14:27:13;15.10;;;8.10;;